CES2409 ZSSS-ZBYN
Flight info
| Callsign | CES2409 |
|---|---|
| Flight time | 2h 3m |
| Altitude | 36100 |
| Route | PIKAS G330 UNTAN G345 OLRIS R343 MADUK/K0872S1160 R343 HFE B208 ANPIG |
| Aircraft | B738/M-SDE2E3FGHIRWXY/LB1 |
Departure
| Time | 2026-05-04 11:27 |
|---|---|
| Airport | Shanghai Hongqiao International Airport (ZSSS) |
Arrival
| Time | 2026-05-04 13:31 |
|---|---|
| Airport | Taiyuan Wusu International Airport (ZBYN) |
| Time | Latitude | Longitude | Altitude | Speed | Heading |
|---|---|---|---|---|---|
| 2026-05-04 10:59 | 31.19318 | 121.32540 | 19 ft | 0 kts | 346° |
| 2026-05-04 11:12 | 31.19315 | 121.32541 | 19 ft | 2 kts | 346° |
| 2026-05-04 11:12 | 31.19300 | 121.32545 | 19 ft | 2 kts | 346° |
| 2026-05-04 11:13 | 31.19286 | 121.32549 | 19 ft | 2 kts | 346° |
| 2026-05-04 11:13 | 31.19272 | 121.32553 | 19 ft | 2 kts | 346° |
| 2026-05-04 11:13 | 31.19257 | 121.32558 | 19 ft | 2 kts | 346° |
| 2026-05-04 11:13 | 31.19243 | 121.32561 | 20 ft | 2 kts | 346° |
| 2026-05-04 11:14 | 31.19228 | 121.32566 | 20 ft | 2 kts | 346° |
| 2026-05-04 11:14 | 31.19214 | 121.32570 | 20 ft | 2 kts | 346° |
| 2026-05-04 11:14 | 31.19199 | 121.32573 | 20 ft | 2 kts | 355° |
| 2026-05-04 11:16 | 31.19163 | 121.32576 | 21 ft | 0 kts | 356° |
| 2026-05-04 11:17 | 31.19164 | 121.32576 | 21 ft | 1 kts | 356° |
| 2026-05-04 11:17 | 31.19172 | 121.32575 | 21 ft | 2 kts | 356° |
| 2026-05-04 11:19 | 31.19306 | 121.32997 | 19 ft | 12 kts | 357° |
| 2026-05-04 11:19 | 31.19411 | 121.32992 | 19 ft | 14 kts | 357° |
| 2026-05-04 11:19 | 31.19516 | 121.32986 | 19 ft | 15 kts | 358° |
| 2026-05-04 11:19 | 31.19621 | 121.32980 | 19 ft | 15 kts | 357° |
| 2026-05-04 11:20 | 31.19686 | 121.32976 | 19 ft | 10 kts | 355° |
| 2026-05-04 11:20 | 31.19712 | 121.32974 | 19 ft | 0 kts | 355° |
| 2026-05-04 11:22 | 31.19849 | 121.32967 | 19 ft | 14 kts | 357° |
| 2026-05-04 11:22 | 31.19955 | 121.32962 | 19 ft | 15 kts | 358° |
| 2026-05-04 11:23 | 31.20060 | 121.32956 | 19 ft | 15 kts | 356° |
| 2026-05-04 11:23 | 31.20164 | 121.32951 | 19 ft | 14 kts | 357° |
| 2026-05-04 11:24 | 31.20940 | 121.32909 | 19 ft | 20 kts | 356° |
| 2026-05-04 11:25 | 31.21079 | 121.32902 | 19 ft | 19 kts | 358° |
| 2026-05-04 11:25 | 31.21204 | 121.32894 | 19 ft | 15 kts | 358° |
| 2026-05-04 11:25 | 31.21282 | 121.32918 | 19 ft | 11 kts | 66° |
| 2026-05-04 11:26 | 31.21294 | 121.33120 | 19 ft | 11 kts | 87° |
| 2026-05-04 11:27 | 31.18327 | 121.33365 | 721 ft | 166 kts | 174° |
| 2026-05-04 11:28 | 31.17139 | 121.33488 | 1206 ft | 178 kts | 178° |
| 2026-05-04 11:28 | 31.15847 | 121.33491 | 1643 ft | 195 kts | 180° |
| 2026-05-04 11:28 | 31.14418 | 121.33545 | 1994 ft | 218 kts | 176° |
| 2026-05-04 11:28 | 31.12832 | 121.33632 | 2524 ft | 236 kts | 178° |
| 2026-05-04 11:29 | 31.11154 | 121.33699 | 3143 ft | 252 kts | 178° |
| 2026-05-04 11:29 | 31.09375 | 121.33767 | 3828 ft | 264 kts | 180° |
| 2026-05-04 11:29 | 31.07574 | 121.33363 | 4648 ft | 269 kts | 203° |
| 2026-05-04 11:29 | 31.06014 | 121.32175 | 5518 ft | 273 kts | 222° |
| 2026-05-04 11:31 | 31.06517 | 121.16818 | 10966 ft | 322 kts | 296° |
| 2026-05-04 11:33 | 31.22321 | 121.11079 | 16421 ft | 379 kts | 355° |
| 2026-05-04 11:33 | 31.24984 | 121.10818 | 17255 ft | 384 kts | 355° |
| 2026-05-04 11:33 | 31.27632 | 121.10558 | 18047 ft | 389 kts | 355° |
| 2026-05-04 11:34 | 31.30324 | 121.10293 | 18820 ft | 393 kts | 355° |
| 2026-05-04 11:34 | 31.33069 | 121.10022 | 19579 ft | 398 kts | 355° |
| 2026-05-04 11:34 | 31.35811 | 121.09751 | 20310 ft | 402 kts | 355° |
| 2026-05-04 11:34 | 31.38604 | 121.09475 | 21021 ft | 406 kts | 355° |
| 2026-05-04 11:35 | 31.41450 | 121.09194 | 21711 ft | 411 kts | 355° |
| 2026-05-04 11:35 | 31.44310 | 121.08911 | 22372 ft | 415 kts | 355° |
| 2026-05-04 11:35 | 31.47164 | 121.08643 | 22842 ft | 419 kts | 354° |
| 2026-05-04 11:35 | 31.50040 | 121.08137 | 23485 ft | 423 kts | 348° |
| 2026-05-04 11:36 | 31.52915 | 121.07241 | 24104 ft | 426 kts | 341° |
| 2026-05-04 11:36 | 31.55654 | 121.05944 | 24692 ft | 430 kts | 335° |
| 2026-05-04 11:36 | 31.58374 | 121.04472 | 25266 ft | 434 kts | 335° |
| 2026-05-04 11:36 | 31.61138 | 121.03010 | 25821 ft | 438 kts | 336° |
| 2026-05-04 11:37 | 31.63891 | 121.01575 | 26352 ft | 441 kts | 336° |
| 2026-05-04 11:37 | 31.66692 | 121.00103 | 26873 ft | 445 kts | 336° |
| 2026-05-04 11:37 | 31.69529 | 120.98599 | 27381 ft | 448 kts | 335° |
| 2026-05-04 11:37 | 31.72382 | 120.97083 | 27874 ft | 452 kts | 335° |
| 2026-05-04 11:38 | 31.75251 | 120.95557 | 28352 ft | 455 kts | 335° |
| 2026-05-04 11:38 | 31.78130 | 120.94022 | 28814 ft | 458 kts | 335° |
| 2026-05-04 11:38 | 31.81036 | 120.92472 | 29262 ft | 462 kts | 335° |
| 2026-05-04 11:38 | 31.83986 | 120.90896 | 29701 ft | 465 kts | 335° |
| 2026-05-04 11:39 | 31.86910 | 120.89332 | 30119 ft | 468 kts | 335° |
| 2026-05-04 11:39 | 31.89894 | 120.87734 | 30526 ft | 471 kts | 335° |
| 2026-05-04 11:40 | 32.07531 | 120.77479 | 33289 ft | 471 kts | 324° |
| 2026-05-04 11:41 | 32.10022 | 120.75003 | 33725 ft | 470 kts | 315° |
| 2026-05-04 11:41 | 32.12203 | 120.72135 | 34157 ft | 469 kts | 309° |
| 2026-05-04 11:41 | 32.14160 | 120.69051 | 34571 ft | 468 kts | 304° |
| 2026-05-04 11:41 | 32.15734 | 120.65757 | 34926 ft | 467 kts | 294° |
| 2026-05-04 11:42 | 32.16811 | 120.62150 | 35318 ft | 466 kts | 287° |
| 2026-05-04 11:42 | 32.17668 | 120.58470 | 35691 ft | 465 kts | 283° |
| 2026-05-04 11:42 | 32.18180 | 120.54660 | 36019 ft | 465 kts | 276° |
| 2026-05-04 11:42 | 32.18471 | 120.50903 | 36184 ft | 468 kts | 275° |
| 2026-05-04 11:43 | 32.18780 | 120.47031 | 36173 ft | 469 kts | 276° |
| 2026-05-04 11:43 | 32.19454 | 120.39425 | 36175 ft | 465 kts | 276° |
| 2026-05-04 11:44 | 32.19940 | 120.31856 | 36174 ft | 463 kts | 269° |
| 2026-05-04 11:44 | 32.19610 | 120.28100 | 36174 ft | 463 kts | 257° |
| 2026-05-04 11:44 | 32.18505 | 120.24538 | 36178 ft | 464 kts | 243° |
| 2026-05-04 11:45 | 32.15387 | 120.17844 | 36160 ft | 466 kts | 242° |
| 2026-05-04 11:45 | 32.12363 | 120.11065 | 36148 ft | 465 kts | 242° |
| 2026-05-04 11:46 | 32.09338 | 120.04408 | 36148 ft | 464 kts | 242° |
| 2026-05-04 11:46 | 32.06268 | 119.97697 | 36148 ft | 464 kts | 242° |
| 2026-05-04 11:47 | 32.03276 | 119.91164 | 36147 ft | 465 kts | 242° |
| 2026-05-04 11:47 | 32.00252 | 119.84450 | 36148 ft | 465 kts | 242° |
| 2026-05-04 11:48 | 31.97201 | 119.77698 | 36148 ft | 465 kts | 242° |
| 2026-05-04 11:48 | 31.94178 | 119.71033 | 36148 ft | 465 kts | 242° |
| 2026-05-04 11:49 | 31.91240 | 119.64247 | 36148 ft | 465 kts | 244° |
| 2026-05-04 11:49 | 31.88360 | 119.57462 | 36148 ft | 465 kts | 243° |
| 2026-05-04 11:50 | 31.85455 | 119.50693 | 36147 ft | 465 kts | 243° |
| 2026-05-04 11:50 | 31.82558 | 119.43889 | 36148 ft | 465 kts | 245° |
| 2026-05-04 11:51 | 31.80530 | 119.36701 | 36147 ft | 464 kts | 260° |
| 2026-05-04 11:51 | 31.79927 | 119.29128 | 36149 ft | 465 kts | 266° |
| 2026-05-04 11:52 | 31.79444 | 119.21555 | 36150 ft | 465 kts | 265° |
| 2026-05-04 11:52 | 31.78928 | 119.14010 | 36148 ft | 465 kts | 265° |
| 2026-05-04 11:53 | 31.78430 | 119.06460 | 36148 ft | 464 kts | 265° |
| 2026-05-04 11:53 | 31.77929 | 118.98883 | 36148 ft | 464 kts | 265° |
| 2026-05-04 11:55 | 31.75899 | 118.68626 | 36148 ft | 464 kts | 265° |
| 2026-05-04 11:56 | 31.75384 | 118.61083 | 36148 ft | 464 kts | 265° |
| 2026-05-04 11:56 | 31.74863 | 118.53539 | 36148 ft | 464 kts | 265° |
| 2026-05-04 11:57 | 31.74338 | 118.45981 | 36148 ft | 464 kts | 265° |
| 2026-05-04 11:57 | 31.73807 | 118.38407 | 36148 ft | 464 kts | 265° |
| 2026-05-04 11:58 | 31.73272 | 118.30852 | 36149 ft | 464 kts | 265° |
| 2026-05-04 11:58 | 31.72734 | 118.23306 | 36148 ft | 464 kts | 265° |
| 2026-05-04 11:59 | 31.72193 | 118.15772 | 36148 ft | 464 kts | 265° |
| 2026-05-04 11:59 | 31.72093 | 118.08183 | 36148 ft | 464 kts | 274° |
| 2026-05-04 12:00 | 31.72637 | 118.00668 | 36148 ft | 464 kts | 274° |
| 2026-05-04 12:00 | 31.73132 | 117.93112 | 36147 ft | 464 kts | 274° |
| 2026-05-04 12:01 | 31.73655 | 117.85559 | 36148 ft | 464 kts | 275° |
| 2026-05-04 12:02 | 31.75511 | 117.59094 | 36094 ft | 464 kts | 275° |
| 2026-05-04 12:03 | 31.76035 | 117.51559 | 36094 ft | 464 kts | 275° |
| 2026-05-04 12:03 | 31.76554 | 117.44038 | 36093 ft | 464 kts | 275° |
| 2026-05-04 12:04 | 31.77113 | 117.36472 | 36093 ft | 464 kts | 278° |
| 2026-05-04 12:04 | 31.78925 | 117.29235 | 36093 ft | 463 kts | 297° |
| 2026-05-04 12:05 | 31.82683 | 117.23127 | 36095 ft | 464 kts | 311° |
| 2026-05-04 12:05 | 31.86861 | 117.17382 | 36093 ft | 464 kts | 310° |
| 2026-05-04 12:06 | 31.91005 | 117.11548 | 36094 ft | 464 kts | 310° |
| 2026-05-04 12:06 | 31.95142 | 117.05782 | 36093 ft | 464 kts | 310° |
| 2026-05-04 12:07 | 31.99303 | 116.99981 | 36208 ft | 464 kts | 310° |
| 2026-05-04 12:07 | 32.01385 | 116.97089 | 36631 ft | 462 kts | 310° |
| 2026-05-04 12:07 | 32.03447 | 116.94231 | 36930 ft | 462 kts | 310° |
| 2026-05-04 12:08 | 32.05521 | 116.91355 | 37226 ft | 462 kts | 310° |
| 2026-05-04 12:08 | 32.07619 | 116.88442 | 37528 ft | 462 kts | 310° |
| 2026-05-04 12:08 | 32.09683 | 116.85573 | 37808 ft | 461 kts | 310° |
| 2026-05-04 12:08 | 32.11755 | 116.82691 | 38068 ft | 461 kts | 310° |
| 2026-05-04 12:09 | 32.15899 | 116.76924 | 38094 ft | 464 kts | 310° |
| 2026-05-04 12:09 | 32.20045 | 116.71131 | 38094 ft | 460 kts | 310° |
| 2026-05-04 12:10 | 32.24075 | 116.65320 | 38094 ft | 459 kts | 309° |
| 2026-05-04 12:10 | 32.28127 | 116.59469 | 38093 ft | 460 kts | 309° |
| 2026-05-04 12:11 | 32.32177 | 116.53624 | 38094 ft | 461 kts | 309° |
| 2026-05-04 12:11 | 32.36234 | 116.47759 | 38093 ft | 460 kts | 309° |
| 2026-05-04 12:12 | 32.40269 | 116.41917 | 38094 ft | 460 kts | 309° |
| 2026-05-04 12:12 | 32.44310 | 116.36059 | 38094 ft | 460 kts | 309° |
| 2026-05-04 12:14 | 32.60491 | 116.12672 | 38094 ft | 460 kts | 310° |
| 2026-05-04 12:15 | 32.64625 | 116.06886 | 38094 ft | 460 kts | 310° |
| 2026-05-04 12:15 | 32.68717 | 116.01115 | 38095 ft | 460 kts | 310° |
| 2026-05-04 12:16 | 32.72814 | 115.95335 | 38094 ft | 460 kts | 310° |
| 2026-05-04 12:16 | 32.76919 | 115.89528 | 38095 ft | 460 kts | 310° |
| 2026-05-04 12:17 | 32.81032 | 115.83701 | 38093 ft | 460 kts | 310° |
| 2026-05-04 12:17 | 32.85138 | 115.77874 | 38095 ft | 460 kts | 310° |
| 2026-05-04 12:18 | 32.89230 | 115.72070 | 38094 ft | 460 kts | 310° |
| 2026-05-04 12:18 | 32.93428 | 115.66345 | 38095 ft | 460 kts | 311° |
| 2026-05-04 12:19 | 32.97622 | 115.60634 | 38094 ft | 460 kts | 311° |
| 2026-05-04 12:19 | 33.01794 | 115.54922 | 38095 ft | 459 kts | 311° |
| 2026-05-04 12:20 | 33.05987 | 115.49175 | 38094 ft | 459 kts | 311° |
| 2026-05-04 12:20 | 33.10148 | 115.43462 | 38094 ft | 459 kts | 311° |
| 2026-05-04 12:21 | 33.14333 | 115.37706 | 38094 ft | 459 kts | 311° |
| 2026-05-04 12:21 | 33.18520 | 115.31937 | 38095 ft | 459 kts | 310° |
| 2026-05-04 12:22 | 33.22683 | 115.26189 | 38065 ft | 460 kts | 310° |
| 2026-05-04 12:22 | 33.26859 | 115.20417 | 38068 ft | 459 kts | 310° |
| 2026-05-04 12:23 | 33.31021 | 115.14654 | 38067 ft | 459 kts | 310° |
| 2026-05-04 12:23 | 33.35153 | 115.08924 | 38068 ft | 459 kts | 310° |
| 2026-05-04 12:24 | 33.39330 | 115.03121 | 38067 ft | 459 kts | 310° |
| 2026-05-04 12:24 | 33.43477 | 114.97352 | 38067 ft | 459 kts | 310° |
| 2026-05-04 12:25 | 33.47631 | 114.91564 | 38067 ft | 459 kts | 310° |
| 2026-05-04 12:25 | 33.51784 | 114.85767 | 38067 ft | 459 kts | 310° |
| 2026-05-04 12:26 | 33.55917 | 114.79989 | 38067 ft | 459 kts | 310° |
| 2026-05-04 12:26 | 33.60065 | 114.74189 | 38067 ft | 459 kts | 311° |
| 2026-05-04 12:27 | 33.64296 | 114.68465 | 38067 ft | 459 kts | 313° |
| 2026-05-04 12:27 | 33.69002 | 114.63318 | 38067 ft | 459 kts | 322° |
| 2026-05-04 12:28 | 33.73953 | 114.58545 | 38067 ft | 460 kts | 321° |
| 2026-05-04 12:28 | 33.78920 | 114.53692 | 38066 ft | 459 kts | 321° |
| 2026-05-04 12:29 | 33.83905 | 114.48885 | 38067 ft | 459 kts | 322° |
| 2026-05-04 12:29 | 33.88922 | 114.44156 | 38066 ft | 459 kts | 322° |
| 2026-05-04 12:30 | 33.93928 | 114.39435 | 38067 ft | 459 kts | 322° |
| 2026-05-04 12:30 | 33.98942 | 114.34699 | 38066 ft | 459 kts | 322° |
| 2026-05-04 12:31 | 34.03936 | 114.29977 | 38067 ft | 459 kts | 322° |
| 2026-05-04 12:31 | 34.08952 | 114.25228 | 38067 ft | 459 kts | 322° |
| 2026-05-04 12:32 | 34.16465 | 114.18102 | 38067 ft | 459 kts | 322° |
| 2026-05-04 12:33 | 34.21476 | 114.13339 | 38067 ft | 459 kts | 322° |
| 2026-05-04 12:33 | 34.26473 | 114.08584 | 38067 ft | 459 kts | 322° |
| 2026-05-04 12:34 | 34.31471 | 114.03819 | 38067 ft | 459 kts | 322° |
| 2026-05-04 12:34 | 34.36474 | 113.99044 | 38067 ft | 459 kts | 322° |
| 2026-05-04 12:35 | 34.41466 | 113.94270 | 38067 ft | 459 kts | 322° |
| 2026-05-04 12:35 | 34.46444 | 113.89503 | 38067 ft | 459 kts | 322° |
| 2026-05-04 12:36 | 34.51674 | 113.85146 | 38066 ft | 459 kts | 332° |
| 2026-05-04 12:36 | 34.57623 | 113.82468 | 38068 ft | 459 kts | 346° |
| 2026-05-04 12:37 | 34.63772 | 113.80492 | 38067 ft | 459 kts | 344° |
| 2026-05-04 12:37 | 34.69929 | 113.78399 | 38067 ft | 459 kts | 345° |
| 2026-05-04 12:38 | 34.76034 | 113.76365 | 38066 ft | 459 kts | 345° |
| 2026-05-04 12:38 | 34.82202 | 113.74309 | 38067 ft | 459 kts | 345° |
| 2026-05-04 12:39 | 34.88319 | 113.72205 | 38066 ft | 459 kts | 342° |
| 2026-05-04 12:39 | 34.94277 | 113.69509 | 38066 ft | 459 kts | 339° |
| 2026-05-04 12:40 | 35.00240 | 113.66836 | 38066 ft | 459 kts | 340° |
| 2026-05-04 12:40 | 35.06223 | 113.64185 | 38066 ft | 459 kts | 340° |
| 2026-05-04 12:41 | 35.12230 | 113.61519 | 38067 ft | 459 kts | 340° |
| 2026-05-04 12:41 | 35.18201 | 113.58871 | 38067 ft | 459 kts | 340° |
| 2026-05-04 12:42 | 35.24219 | 113.56201 | 38067 ft | 459 kts | 340° |
| 2026-05-04 12:42 | 35.30190 | 113.53548 | 38067 ft | 459 kts | 340° |
| 2026-05-04 12:43 | 35.36155 | 113.50895 | 38067 ft | 459 kts | 340° |
| 2026-05-04 12:43 | 35.42134 | 113.48231 | 38067 ft | 459 kts | 340° |
| 2026-05-04 12:44 | 35.48109 | 113.45573 | 38067 ft | 459 kts | 340° |
| 2026-05-04 12:44 | 35.54120 | 113.42915 | 38067 ft | 459 kts | 340° |
| 2026-05-04 12:45 | 35.60110 | 113.40258 | 38067 ft | 459 kts | 340° |
| 2026-05-04 12:45 | 35.66070 | 113.37607 | 38067 ft | 459 kts | 340° |
| 2026-05-04 12:46 | 35.72057 | 113.34935 | 38067 ft | 459 kts | 340° |
| 2026-05-04 12:46 | 35.78032 | 113.32265 | 38067 ft | 459 kts | 340° |
| 2026-05-04 12:47 | 35.84045 | 113.29575 | 38067 ft | 459 kts | 340° |
| 2026-05-04 12:47 | 35.90011 | 113.26910 | 38067 ft | 459 kts | 340° |
| 2026-05-04 12:48 | 35.95982 | 113.24244 | 38067 ft | 459 kts | 340° |
| 2026-05-04 12:48 | 36.01994 | 113.21554 | 38067 ft | 459 kts | 340° |
| 2026-05-04 12:49 | 36.07958 | 113.18881 | 38067 ft | 459 kts | 340° |
| 2026-05-04 12:49 | 36.13919 | 113.16204 | 38067 ft | 459 kts | 340° |
| 2026-05-04 12:50 | 36.19920 | 113.13505 | 38067 ft | 459 kts | 340° |
| 2026-05-04 12:50 | 36.25921 | 113.10957 | 38066 ft | 459 kts | 344° |
| 2026-05-04 12:51 | 36.32097 | 113.09029 | 38067 ft | 459 kts | 346° |
| 2026-05-04 12:51 | 36.38273 | 113.07031 | 38067 ft | 459 kts | 345° |
| 2026-05-04 12:52 | 36.44398 | 113.05040 | 38067 ft | 459 kts | 345° |
| 2026-05-04 12:52 | 36.50569 | 113.03035 | 38067 ft | 459 kts | 345° |
| 2026-05-04 12:53 | 36.56715 | 113.01031 | 38067 ft | 459 kts | 345° |
| 2026-05-04 12:53 | 36.62868 | 112.99021 | 38067 ft | 459 kts | 345° |
| 2026-05-04 12:54 | 36.69026 | 112.97006 | 38066 ft | 459 kts | 345° |
| 2026-05-04 12:54 | 36.75161 | 112.94995 | 38067 ft | 459 kts | 345° |
| 2026-05-04 12:55 | 36.81318 | 112.92973 | 38067 ft | 459 kts | 345° |
| 2026-05-04 12:55 | 36.87491 | 112.90943 | 38021 ft | 458 kts | 345° |
| 2026-05-04 12:55 | 36.90566 | 112.89931 | 37391 ft | 458 kts | 345° |
| 2026-05-04 12:56 | 36.93597 | 112.88931 | 36694 ft | 457 kts | 345° |
| 2026-05-04 12:56 | 36.96677 | 112.87915 | 35995 ft | 457 kts | 345° |
| 2026-05-04 12:56 | 36.99745 | 112.86968 | 35235 ft | 458 kts | 349° |
| 2026-05-04 12:56 | 37.02872 | 112.86719 | 34389 ft | 460 kts | 4° |
| 2026-05-04 12:57 | 37.06001 | 112.87566 | 33549 ft | 461 kts | 21° |
| 2026-05-04 12:57 | 37.08798 | 112.89474 | 32707 ft | 463 kts | 37° |
| 2026-05-04 12:57 | 37.11047 | 112.92307 | 31951 ft | 461 kts | 54° |
| 2026-05-04 12:57 | 37.12552 | 112.95773 | 31187 ft | 461 kts | 70° |
| 2026-05-04 12:58 | 37.13235 | 112.99681 | 30330 ft | 462 kts | 86° |
| 2026-05-04 12:58 | 37.13009 | 113.03696 | 29447 ft | 464 kts | 102° |
| 2026-05-04 12:58 | 37.11949 | 113.07490 | 28579 ft | 465 kts | 114° |
| 2026-05-04 12:58 | 37.10564 | 113.11121 | 27698 ft | 467 kts | 115° |
| 2026-05-04 12:59 | 37.09188 | 113.14787 | 26786 ft | 469 kts | 114° |
| 2026-05-04 12:59 | 37.07838 | 113.18499 | 25856 ft | 470 kts | 114° |
| 2026-05-04 12:59 | 37.06496 | 113.22190 | 25078 ft | 468 kts | 114° |
| 2026-05-04 12:59 | 37.05160 | 113.25848 | 24458 ft | 462 kts | 114° |
| 2026-05-04 13:00 | 37.03763 | 113.29412 | 24156 ft | 448 kts | 121° |
| 2026-05-04 13:00 | 37.01880 | 113.32379 | 24057 ft | 431 kts | 136° |
| 2026-05-04 13:00 | 36.99483 | 113.34486 | 23685 ft | 422 kts | 153° |
| 2026-05-04 13:00 | 36.96715 | 113.35614 | 22956 ft | 421 kts | 171° |
| 2026-05-04 13:01 | 36.93825 | 113.35606 | 22325 ft | 418 kts | 189° |
| 2026-05-04 13:01 | 36.91099 | 113.34483 | 21712 ft | 415 kts | 207° |
| 2026-05-04 13:01 | 36.88784 | 113.32338 | 21104 ft | 411 kts | 226° |
| 2026-05-04 13:01 | 36.87177 | 113.29476 | 20515 ft | 408 kts | 244° |
| 2026-05-04 13:02 | 36.86373 | 113.26111 | 19922 ft | 404 kts | 263° |
| 2026-05-04 13:02 | 36.86475 | 113.22630 | 19334 ft | 401 kts | 282° |
| 2026-05-04 13:02 | 36.87447 | 113.19450 | 18757 ft | 397 kts | 300° |
| 2026-05-04 13:02 | 36.89188 | 113.16817 | 18186 ft | 394 kts | 318° |
| 2026-05-04 13:03 | 36.91302 | 113.14661 | 17644 ft | 390 kts | 321° |
| 2026-05-04 13:03 | 36.93415 | 113.12599 | 17083 ft | 388 kts | 325° |
| 2026-05-04 13:03 | 36.95821 | 113.11104 | 16497 ft | 385 kts | 343° |
| 2026-05-04 13:03 | 36.98437 | 113.10689 | 15942 ft | 381 kts | 3° |
| 2026-05-04 13:04 | 37.00966 | 113.11386 | 15390 ft | 378 kts | 22° |
| 2026-05-04 13:04 | 37.03147 | 113.13117 | 14864 ft | 374 kts | 43° |
| 2026-05-04 13:04 | 37.04665 | 113.15718 | 14750 ft | 365 kts | 65° |
| 2026-05-04 13:04 | 37.05322 | 113.18778 | 14769 ft | 373 kts | 85° |
| 2026-05-04 13:05 | 37.05094 | 113.21999 | 14766 ft | 375 kts | 105° |
| 2026-05-04 13:05 | 37.04126 | 113.25017 | 14768 ft | 375 kts | 115° |
| 2026-05-04 13:05 | 37.03002 | 113.27982 | 14766 ft | 375 kts | 115° |
| 2026-05-04 13:05 | 37.01919 | 113.30944 | 14766 ft | 374 kts | 114° |
| 2026-05-04 13:06 | 37.00707 | 113.33804 | 14763 ft | 374 kts | 125° |
| 2026-05-04 13:06 | 36.98904 | 113.36106 | 14626 ft | 370 kts | 143° |
| 2026-05-04 13:06 | 36.96625 | 113.37541 | 14009 ft | 369 kts | 163° |
| 2026-05-04 13:06 | 36.94120 | 113.37862 | 13540 ft | 364 kts | 185° |
| 2026-05-04 13:07 | 36.91710 | 113.37045 | 13200 ft | 363 kts | 205° |
| 2026-05-04 13:07 | 36.89667 | 113.35193 | 12849 ft | 364 kts | 226° |
| 2026-05-04 13:07 | 36.88289 | 113.32571 | 12499 ft | 363 kts | 247° |
| 2026-05-04 13:07 | 36.87747 | 113.29539 | 12150 ft | 361 kts | 268° |
| 2026-05-04 13:08 | 36.88103 | 113.26466 | 11799 ft | 359 kts | 289° |
| 2026-05-04 13:08 | 36.89143 | 113.23650 | 11461 ft | 357 kts | 297° |
| 2026-05-04 13:08 | 36.90269 | 113.20918 | 11109 ft | 355 kts | 296° |
| 2026-05-04 13:08 | 36.91371 | 113.18161 | 10750 ft | 348 kts | 296° |
| 2026-05-04 13:09 | 36.92439 | 113.15489 | 10475 ft | 339 kts | 296° |
| 2026-05-04 13:09 | 36.93466 | 113.12925 | 10301 ft | 327 kts | 296° |
| 2026-05-04 13:09 | 36.94463 | 113.10436 | 10124 ft | 316 kts | 296° |
| 2026-05-04 13:09 | 36.95428 | 113.08026 | 9948 ft | 306 kts | 296° |
| 2026-05-04 13:10 | 36.96373 | 113.05669 | 9771 ft | 296 kts | 296° |
| 2026-05-04 13:10 | 36.97283 | 113.03397 | 9596 ft | 289 kts | 296° |
| 2026-05-04 13:10 | 36.98182 | 113.01155 | 9423 ft | 288 kts | 296° |
| 2026-05-04 13:10 | 36.99078 | 112.98919 | 9249 ft | 289 kts | 296° |
| 2026-05-04 13:11 | 36.99970 | 112.96693 | 9076 ft | 288 kts | 296° |
| 2026-05-04 13:11 | 37.00869 | 112.94451 | 8901 ft | 288 kts | 296° |
| 2026-05-04 13:11 | 37.01765 | 112.92217 | 8762 ft | 286 kts | 296° |
| 2026-05-04 13:11 | 37.02685 | 112.90018 | 8636 ft | 286 kts | 303° |
| 2026-05-04 13:12 | 37.04095 | 112.88337 | 8504 ft | 285 kts | 333° |
| 2026-05-04 13:12 | 37.05984 | 112.87550 | 8394 ft | 285 kts | 344° |
| 2026-05-04 13:12 | 37.07834 | 112.86749 | 8270 ft | 285 kts | 338° |
| 2026-05-04 13:12 | 37.09681 | 112.85845 | 8145 ft | 284 kts | 340° |
| 2026-05-04 13:13 | 37.11545 | 112.84999 | 8019 ft | 284 kts | 340° |
| 2026-05-04 13:13 | 37.13391 | 112.84174 | 7894 ft | 283 kts | 340° |
| 2026-05-04 13:13 | 37.15241 | 112.83349 | 7769 ft | 283 kts | 340° |
| 2026-05-04 13:13 | 37.17089 | 112.82529 | 7644 ft | 282 kts | 340° |
| 2026-05-04 13:14 | 37.18937 | 112.81710 | 7518 ft | 282 kts | 341° |
| 2026-05-04 13:14 | 37.20770 | 112.80898 | 7394 ft | 281 kts | 341° |
| 2026-05-04 13:14 | 37.22613 | 112.80082 | 7268 ft | 281 kts | 341° |
| 2026-05-04 13:14 | 37.24461 | 112.79263 | 7142 ft | 280 kts | 341° |
| 2026-05-04 13:15 | 37.26290 | 112.78452 | 7018 ft | 280 kts | 341° |
| 2026-05-04 13:15 | 37.28064 | 112.77473 | 6885 ft | 279 kts | 326° |
| 2026-05-04 13:15 | 37.29393 | 112.75758 | 6803 ft | 277 kts | 306° |
| 2026-05-04 13:15 | 37.30526 | 112.73789 | 6733 ft | 278 kts | 307° |
| 2026-05-04 13:16 | 37.31710 | 112.71844 | 6657 ft | 278 kts | 307° |
| 2026-05-04 13:16 | 37.32877 | 112.69914 | 6582 ft | 278 kts | 307° |
| 2026-05-04 13:16 | 37.34037 | 112.67988 | 6506 ft | 277 kts | 307° |
| 2026-05-04 13:16 | 37.35196 | 112.66063 | 6469 ft | 276 kts | 307° |
| 2026-05-04 13:17 | 37.36363 | 112.64124 | 6469 ft | 277 kts | 307° |
| 2026-05-04 13:17 | 37.37514 | 112.62210 | 6444 ft | 277 kts | 307° |
| 2026-05-04 13:17 | 37.38679 | 112.60273 | 6419 ft | 277 kts | 307° |
| 2026-05-04 13:17 | 37.39835 | 112.58347 | 6394 ft | 277 kts | 307° |
| 2026-05-04 13:18 | 37.41002 | 112.56403 | 6368 ft | 277 kts | 307° |
| 2026-05-04 13:18 | 37.42159 | 112.54476 | 6343 ft | 277 kts | 307° |
| 2026-05-04 13:18 | 37.43317 | 112.52544 | 6318 ft | 277 kts | 307° |
| 2026-05-04 13:18 | 37.44481 | 112.50602 | 6273 ft | 277 kts | 307° |
| 2026-05-04 13:19 | 37.45635 | 112.48676 | 6248 ft | 276 kts | 308° |
| 2026-05-04 13:19 | 37.46968 | 112.46970 | 6217 ft | 276 kts | 325° |
| 2026-05-04 13:19 | 37.48703 | 112.45983 | 6192 ft | 276 kts | 348° |
| 2026-05-04 13:19 | 37.50611 | 112.45873 | 6169 ft | 276 kts | 8° |
| 2026-05-04 13:20 | 37.52412 | 112.46622 | 6143 ft | 276 kts | 30° |
| 2026-05-04 13:20 | 37.53972 | 112.48024 | 6126 ft | 276 kts | 38° |
| 2026-05-04 13:20 | 37.55500 | 112.49483 | 6101 ft | 276 kts | 37° |
| 2026-05-04 13:20 | 37.57055 | 112.50939 | 6076 ft | 276 kts | 37° |
| 2026-05-04 13:21 | 37.58569 | 112.52366 | 6051 ft | 276 kts | 37° |
| 2026-05-04 13:21 | 37.60085 | 112.53840 | 6023 ft | 275 kts | 42° |
| 2026-05-04 13:21 | 37.61273 | 112.55741 | 5992 ft | 275 kts | 64° |
| 2026-05-04 13:21 | 37.61787 | 112.58032 | 5969 ft | 275 kts | 85° |
| 2026-05-04 13:22 | 37.61620 | 112.60420 | 5947 ft | 275 kts | 106° |
| 2026-05-04 13:22 | 37.60770 | 112.62574 | 5951 ft | 275 kts | 126° |
| 2026-05-04 13:22 | 37.59602 | 112.64495 | 5946 ft | 275 kts | 128° |
| 2026-05-04 13:22 | 37.58453 | 112.66418 | 5944 ft | 275 kts | 127° |
| 2026-05-04 13:23 | 37.57301 | 112.68348 | 5942 ft | 271 kts | 127° |
| 2026-05-04 13:23 | 37.56206 | 112.70173 | 5947 ft | 255 kts | 127° |
| 2026-05-04 13:23 | 37.55170 | 112.71899 | 5946 ft | 240 kts | 127° |
| 2026-05-04 13:23 | 37.54190 | 112.73530 | 5946 ft | 226 kts | 127° |
| 2026-05-04 13:24 | 37.53254 | 112.75085 | 5950 ft | 225 kts | 127° |
| 2026-05-04 13:24 | 37.52521 | 112.76817 | 5943 ft | 226 kts | 102° |
| 2026-05-04 13:24 | 37.52626 | 112.78770 | 5951 ft | 226 kts | 69° |
| 2026-05-04 13:25 | 37.54694 | 112.81641 | 5949 ft | 227 kts | 36° |
| 2026-05-04 13:25 | 37.55954 | 112.82825 | 5951 ft | 223 kts | 37° |
| 2026-05-04 13:25 | 37.57151 | 112.83965 | 5943 ft | 207 kts | 37° |
| 2026-05-04 13:25 | 37.58270 | 112.85025 | 5949 ft | 197 kts | 35° |
| 2026-05-04 13:26 | 37.59518 | 112.85692 | 5945 ft | 199 kts | 4° |
| 2026-05-04 13:26 | 37.60821 | 112.85226 | 5949 ft | 200 kts | 320° |
| 2026-05-04 13:26 | 37.61784 | 112.83953 | 5950 ft | 201 kts | 312° |
| 2026-05-04 13:26 | 37.62687 | 112.82677 | 5949 ft | 189 kts | 311° |
| 2026-05-04 13:27 | 37.63507 | 112.81442 | 5850 ft | 180 kts | 308° |
| 2026-05-04 13:27 | 37.64260 | 112.80212 | 5638 ft | 175 kts | 308° |
| 2026-05-04 13:27 | 37.64973 | 112.79034 | 5429 ft | 166 kts | 307° |
| 2026-05-04 13:27 | 37.65666 | 112.77884 | 5200 ft | 165 kts | 307° |
| 2026-05-04 13:28 | 37.66362 | 112.76728 | 4971 ft | 164 kts | 307° |
| 2026-05-04 13:28 | 37.67041 | 112.75598 | 4770 ft | 159 kts | 307° |
| 2026-05-04 13:28 | 37.67701 | 112.74500 | 4533 ft | 154 kts | 307° |
| 2026-05-04 13:28 | 37.68347 | 112.73425 | 4319 ft | 154 kts | 307° |
| 2026-05-04 13:29 | 37.68992 | 112.72350 | 4109 ft | 153 kts | 307° |
| 2026-05-04 13:29 | 37.69629 | 112.71291 | 3903 ft | 153 kts | 307° |
| 2026-05-04 13:29 | 37.70274 | 112.70216 | 3695 ft | 152 kts | 307° |
| 2026-05-04 13:29 | 37.70911 | 112.69154 | 3490 ft | 152 kts | 307° |
| 2026-05-04 13:30 | 37.71545 | 112.68096 | 3287 ft | 152 kts | 307° |
| 2026-05-04 13:30 | 37.72185 | 112.67029 | 3082 ft | 151 kts | 307° |
| 2026-05-04 13:30 | 37.72813 | 112.65981 | 2886 ft | 150 kts | 307° |
| 2026-05-04 13:30 | 37.73443 | 112.64916 | 2664 ft | 152 kts | 308° |
| 2026-05-04 13:31 | 37.74052 | 112.63914 | 2588 ft | 123 kts | 307° |
| 2026-05-04 13:31 | 37.74463 | 112.63226 | 2588 ft | 75 kts | 307° |
| 2026-05-04 13:31 | 37.74681 | 112.62863 | 2587 ft | 32 kts | 307° |
| 2026-05-04 13:31 | 37.74791 | 112.62685 | 2587 ft | 19 kts | 313° |
| 2026-05-04 13:32 | 37.74872 | 112.62595 | 2587 ft | 12 kts | 326° |
| 2026-05-04 13:32 | 37.74943 | 112.62546 | 2587 ft | 10 kts | 333° |
| 2026-05-04 13:32 | 37.74994 | 112.62515 | 2587 ft | 5 kts | 336° |
| 2026-05-04 13:32 | 37.75045 | 112.62487 | 2587 ft | 12 kts | 338° |
| 2026-05-04 13:33 | 37.75120 | 112.62484 | 2587 ft | 10 kts | 30° |
| 2026-05-04 13:33 | 37.75172 | 112.62531 | 2587 ft | 9 kts | 38° |
| 2026-05-04 13:33 | 37.75216 | 112.62591 | 2587 ft | 8 kts | 77° |
| 2026-05-04 13:33 | 37.75192 | 112.62666 | 2587 ft | 9 kts | 109° |
| 2026-05-04 13:34 | 37.75194 | 112.62743 | 2587 ft | 8 kts | 82° |
| 2026-05-04 13:34 | 37.75203 | 112.62815 | 2587 ft | 8 kts | 83° |
| 2026-05-04 13:34 | 37.75208 | 112.62878 | 2587 ft | 5 kts | 82° |
| 2026-05-04 13:34 | 37.75230 | 112.62913 | 2587 ft | 5 kts | 38° |
| 2026-05-04 13:35 | 37.75253 | 112.62936 | 2587 ft | 2 kts | 37° |
| 2026-05-04 13:35 | 37.75256 | 112.62939 | 2587 ft | 0 kts | 38° |